This is the latest recevied weather packets stored in our database for station/object N3SBK. If no packets are shown the sender has not sent any weather packets the latest 10 day(s).
| Time | Temp. | Humidity | Pressure | Rain* | Wind** | Luminosity | Snow |
|---|---|---|---|---|---|---|---|
| 1787770489 | 28.33° C | 49% | 1008.4 hPa | 0 mm | - | 485 W/m² | - |
| 1787770188 | 27.78° C | 52% | 1008.5 hPa | 0 mm | - | 574 W/m² | - |
| 1787769887 | 27.22° C | 51% | 1008.7 hPa | 0 mm | - | 627 W/m² | - |
| 1787769582 | 27.22° C | 54% | 1008.6 hPa | 0 mm | - | 637 W/m² | - |
| 1787769280 | 25.56° C | 64% | 1008.8 hPa | 0 mm | - | 524 W/m² | - |
| 1787768976 | 25.56° C | 64% | 1008.7 hPa | 0 mm | - | 524 W/m² | - |
| 1787768671 | 25.56° C | 64% | 1008.8 hPa | 0 mm | - | 428 W/m² | - |
| 1787768367 | 25.56° C | 61% | 1008.8 hPa | 0 mm | - | 315 W/m² | - |
| 1787768064 | 25° C | 65% | 1008.9 hPa | 0 mm | - | 479 W/m² | - |
| 1787767763 | 25° C | 61% | 1008.8 hPa | 0 mm | - | 356 W/m² | - |
| 1787767459 | 25° C | 60% | 1009 hPa | 0 mm | - | 256 W/m² | - |
| 1787767156 | 25.56° C | 62% | 1008.9 hPa | 0 mm | - | 196 W/m² | - |
| 1787766855 | 26.11° C | 56% | 1009 hPa | 0 mm | - | 125 W/m² | - |
| 1787766550 | 26.11° C | 55% | 1009.1 hPa | 0 mm | - | 165 W/m² | - |
| 1787766250 | 26.11° C | 60% | 1009.1 hPa | 0 mm | - | 367 W/m² | - |
| 1787765944 | 26.11° C | 59% | 1009.1 hPa | 0 mm | - | 244 W/m² | - |
| 1787765641 | 25° C | 61% | 1009.3 hPa | 0 mm | - | 833 W/m² | - |
| 1787765336 | 25.56° C | 59% | 1009.1 hPa | 0 mm | - | 251 W/m² | - |
| 1787765035 | 25.56° C | 59% | 1009.4 hPa | 0 mm | - | 249 W/m² | - |
| 1787764731 | 26.11° C | 54% | 1009.4 hPa | 0 mm | - | 369 W/m² | - |
| 1787764425 | 26.67° C | 56% | 1009.4 hPa | 0 mm | - | 369 W/m² | - |
| 1787764122 | 26.11° C | 60% | 1009.5 hPa | 0 mm | - | 657 W/m² | - |
| 1787763817 | 26.11° C | 55% | 1009.6 hPa | 0 mm | - | 431 W/m² | - |
| 1787763512 | 26.11° C | 60% | 1009.3 hPa | 0 mm | - | 536 W/m² | - |
| 1787763212 | 26.11° C | 56% | 1009.5 hPa | 0 mm | - | 577 W/m² | - |
* Rain latest hour (hover to see other rain measurements)
** Current wind speed in m/s (hover to see current wind gust speed)